createdAt,value
2019-03-18T00:00:28.768Z,14.50
2019-03-18T00:02:59.501Z,14.50
2019-03-18T00:05:30.354Z,14.40
2019-03-18T00:08:01.038Z,14.50
2019-03-18T00:10:31.720Z,14.50
2019-03-18T00:13:02.766Z,14.50
2019-03-18T00:15:33.521Z,14.60
2019-03-18T00:18:05.500Z,14.50
2019-03-18T00:20:36.245Z,14.50
2019-03-18T00:23:07.120Z,14.40
2019-03-18T00:25:37.884Z,14.50
2019-03-18T00:28:18.092Z,14.40
2019-03-18T00:30:52.368Z,14.30
2019-03-18T00:33:23.334Z,14.20
2019-03-18T00:35:55.188Z,14.20
2019-03-18T00:38:26.050Z,14.20
2019-03-18T00:40:56.890Z,14.10
2019-03-18T00:43:27.695Z,14.00
2019-03-18T00:45:58.385Z,14.00
2019-03-18T00:48:29.384Z,14.00
2019-03-18T00:51:00.077Z,14.00
2019-03-18T00:53:30.900Z,13.80
2019-03-18T00:56:01.626Z,13.70
2019-03-18T00:58:32.488Z,13.60
2019-03-18T01:01:03.196Z,13.50
2019-03-18T01:03:34.115Z,13.50
2019-03-18T01:06:07.035Z,13.40
2019-03-18T01:08:37.947Z,13.50
2019-03-18T01:11:08.714Z,13.50
2019-03-18T01:13:39.536Z,13.40
2019-03-18T01:16:11.065Z,13.20
2019-03-18T01:18:41.987Z,13.20
2019-03-18T01:21:12.679Z,13.20
2019-03-18T01:23:43.463Z,13.10
2019-03-18T01:26:14.079Z,13.10
2019-03-18T01:28:44.924Z,13.00
2019-03-18T01:31:19.858Z,13.00
2019-03-18T01:33:50.661Z,13.00
2019-03-18T01:36:21.278Z,12.90
2019-03-18T01:38:52.054Z,12.90
2019-03-18T01:41:23.510Z,12.90
2019-03-18T01:43:54.259Z,12.40
2019-03-18T01:46:24.923Z,12.70
2019-03-18T01:48:55.648Z,12.70
2019-03-18T01:51:27.695Z,12.80
2019-03-18T01:53:58.577Z,12.80
2019-03-18T01:56:30.306Z,12.80
2019-03-18T01:59:01.175Z,12.80
2019-03-18T02:01:31.893Z,12.70
2019-03-18T02:04:02.789Z,12.70
2019-03-18T02:06:33.466Z,12.60
2019-03-18T02:09:05.543Z,12.60
2019-03-18T02:11:36.180Z,12.60
2019-03-18T02:14:06.972Z,12.50
2019-03-18T02:16:37.620Z,12.50
2019-03-18T02:19:08.375Z,12.40
2019-03-18T02:21:39.154Z,12.40
2019-03-18T02:24:09.990Z,12.40
2019-03-18T02:26:40.714Z,12.50
2019-03-18T02:29:11.583Z,12.30
2019-03-18T02:31:42.582Z,12.30
2019-03-18T02:34:31.158Z,12.20
2019-03-18T02:37:02.393Z,12.20
2019-03-18T02:39:33.206Z,12.20
2019-03-18T02:42:03.924Z,12.20
2019-03-18T02:44:39.585Z,12.10
2019-03-18T02:47:10.583Z,12.20
2019-03-18T02:49:41.324Z,12.10
2019-03-18T02:52:12.103Z,12.10
2019-03-18T02:54:42.922Z,12.10
2019-03-18T02:57:13.569Z,12.00
2019-03-18T02:59:44.413Z,12.00
2019-03-18T03:02:33.240Z,12.00
2019-03-18T03:05:09.663Z,12.10
2019-03-18T03:07:40.455Z,12.30
2019-03-18T03:10:11.796Z,12.20
2019-03-18T03:12:42.450Z,12.00
2019-03-18T03:15:13.620Z,12.00
2019-03-18T03:17:44.637Z,12.00
2019-03-18T03:20:15.539Z,12.00
2019-03-18T03:22:46.464Z,12.00
2019-03-18T03:25:17.209Z,11.90
2019-03-18T03:27:48.145Z,11.90
2019-03-18T03:30:19.076Z,11.80
2019-03-18T03:32:49.853Z,11.80
2019-03-18T03:35:20.832Z,11.80
2019-03-18T03:37:52.868Z,11.80
2019-03-18T03:40:24.062Z,11.80
2019-03-18T03:42:55.098Z,11.80
2019-03-18T03:45:25.950Z,11.90
2019-03-18T03:47:56.581Z,11.90
2019-03-18T03:50:27.266Z,11.80
2019-03-18T03:52:58.089Z,11.80
2019-03-18T03:55:28.818Z,11.90
2019-03-18T03:57:59.472Z,11.90
2019-03-18T04:00:30.204Z,11.80
2019-03-18T04:03:01.000Z,11.70
2019-03-18T04:05:31.818Z,11.70
2019-03-18T04:08:02.876Z,11.70
2019-03-18T04:10:56.693Z,11.70
2019-03-18T04:13:27.400Z,11.80
2019-03-18T04:15:58.090Z,11.80
2019-03-18T04:18:28.763Z,11.70
2019-03-18T04:21:07.083Z,11.70
2019-03-18T04:23:38.372Z,11.80
2019-03-18T04:26:09.164Z,11.70
2019-03-18T04:28:39.801Z,11.70
2019-03-18T04:31:10.478Z,11.70
2019-03-18T04:33:41.115Z,11.70
2019-03-18T04:36:11.956Z,11.80
2019-03-18T04:38:42.565Z,11.70
2019-03-18T04:41:13.276Z,11.70
2019-03-18T04:43:44.059Z,11.70
2019-03-18T04:46:14.766Z,11.70
2019-03-18T04:48:45.597Z,11.80
2019-03-18T04:51:16.494Z,11.90
2019-03-18T04:53:47.362Z,11.90
2019-03-18T04:56:18.252Z,11.90
2019-03-18T04:59:12.343Z,11.90
2019-03-18T05:01:43.116Z,11.80
2019-03-18T05:04:14.063Z,11.90
2019-03-18T05:06:44.797Z,11.90
2019-03-18T05:09:16.008Z,11.80
2019-03-18T05:11:46.968Z,11.80
2019-03-18T05:14:17.597Z,11.80
2019-03-18T05:16:48.506Z,11.90
2019-03-18T05:19:19.286Z,11.90
2019-03-18T05:21:50.164Z,11.80
2019-03-18T05:24:20.890Z,11.70
2019-03-18T05:26:51.674Z,11.70
2019-03-18T05:29:22.361Z,11.70
2019-03-18T05:31:53.044Z,11.90
2019-03-18T05:34:24.291Z,12.10
2019-03-18T05:36:58.455Z,12.10
2019-03-18T05:39:29.202Z,12.10
2019-03-18T05:42:00.094Z,12.00
2019-03-18T05:44:50.721Z,12.10
2019-03-18T05:47:21.681Z,12.00
2019-03-18T05:49:53.984Z,12.00
2019-03-18T05:52:24.785Z,12.00
2019-03-18T05:54:55.514Z,12.00
2019-03-18T05:57:26.301Z,12.10
2019-03-18T05:59:56.977Z,12.10
2019-03-18T06:02:27.918Z,12.10
2019-03-18T06:04:58.568Z,12.00
2019-03-18T06:07:29.332Z,12.00
2019-03-18T06:10:00.047Z,12.10
2019-03-18T06:12:33.822Z,12.30
2019-03-18T06:15:05.028Z,12.30
2019-03-18T06:17:35.760Z,12.30
2019-03-18T06:20:07.168Z,12.20
2019-03-18T06:22:38.087Z,12.20
2019-03-18T06:25:08.848Z,12.10
2019-03-18T06:27:39.828Z,12.00
2019-03-18T06:30:11.963Z,12.10
2019-03-18T06:32:42.811Z,12.10
2019-03-18T06:35:13.630Z,12.20
2019-03-18T06:37:44.766Z,12.30
2019-03-18T06:44:15.022Z,12.20
2019-03-18T06:46:46.140Z,12.20
2019-03-18T06:49:16.968Z,12.30
2019-03-18T06:51:47.776Z,12.20
2019-03-18T06:54:18.547Z,12.20
2019-03-18T06:56:49.288Z,12.20
2019-03-18T06:59:20.123Z,12.10
2019-03-18T07:01:51.235Z,12.10
2019-03-18T07:04:22.292Z,12.20
2019-03-18T07:06:54.351Z,12.20
2019-03-18T07:09:25.267Z,12.20
2019-03-18T07:11:56.009Z,12.30
2019-03-18T07:14:26.871Z,12.40
2019-03-18T07:16:57.479Z,12.40
2019-03-18T07:19:28.404Z,12.40
2019-03-18T07:21:59.440Z,12.40
2019-03-18T07:24:30.774Z,12.40
2019-03-18T07:27:01.841Z,12.40
2019-03-18T07:29:41.351Z,12.60
2019-03-18T07:32:12.872Z,12.70
2019-03-18T07:34:44.096Z,12.70
2019-03-18T07:37:14.881Z,12.90
2019-03-18T07:39:45.945Z,12.90
2019-03-18T07:42:16.672Z,13.50
2019-03-18T07:44:47.654Z,14.70
2019-03-18T07:47:18.601Z,16.10
2019-03-18T07:49:49.419Z,17.50
2019-03-18T07:52:27.862Z,18.70
2019-03-18T07:54:59.401Z,19.40
2019-03-18T07:57:32.651Z,19.40
2019-03-18T08:00:02.895Z,20.30
2019-03-18T08:02:33.785Z,21.10
2019-03-18T08:05:05.482Z,21.30
2019-03-18T08:07:36.361Z,21.30
2019-03-18T08:10:07.677Z,20.60
2019-03-18T08:12:39.705Z,19.70
2019-03-18T08:15:10.797Z,20.60
2019-03-18T08:17:41.554Z,20.00
2019-03-18T08:20:12.452Z,19.40
2019-03-18T08:22:43.327Z,19.30
2019-03-18T08:25:15.531Z,20.50
2019-03-18T08:27:47.361Z,19.60
2019-03-18T08:30:18.361Z,18.30
2019-03-18T08:32:49.018Z,17.80
2019-03-18T08:35:19.738Z,17.70
2019-03-18T08:37:50.515Z,18.00
2019-03-18T08:40:25.287Z,17.70
2019-03-18T08:42:56.528Z,17.50
2019-03-18T08:45:27.365Z,17.20
2019-03-18T08:47:58.311Z,16.10
2019-03-18T08:50:29.125Z,16.00
2019-03-18T08:52:59.817Z,16.50
2019-03-18T08:55:39.445Z,15.90
2019-03-18T08:58:10.371Z,15.60
2019-03-18T09:00:42.073Z,16.00
2019-03-18T09:03:13.806Z,16.10
2019-03-18T09:06:26.255Z,16.00
2019-03-18T09:08:57.350Z,16.20
2019-03-18T09:11:28.666Z,16.20
2019-03-18T09:14:00.199Z,16.00
2019-03-18T09:16:52.324Z,15.90
2019-03-18T09:19:23.603Z,15.60
2019-03-18T09:21:54.565Z,15.60
2019-03-18T09:24:26.227Z,15.50
2019-03-18T09:27:02.588Z,15.50
2019-03-18T09:29:30.871Z,15.60
2019-03-18T09:32:01.690Z,15.10
2019-03-18T09:34:32.661Z,15.20
2019-03-18T09:37:03.969Z,15.30
2019-03-18T09:39:34.900Z,15.60
2019-03-18T09:42:06.038Z,15.80
2019-03-18T09:44:36.961Z,15.90
2019-03-18T09:47:07.840Z,15.90
2019-03-18T09:49:38.704Z,16.00
2019-03-18T09:52:10.399Z,16.10
2019-03-18T09:54:41.213Z,15.80
2019-03-18T09:57:26.393Z,15.80
2019-03-18T10:00:12.233Z,15.30
2019-03-18T10:02:43.324Z,15.60
2019-03-18T10:05:14.118Z,15.80
2019-03-18T10:07:46.851Z,15.40
2019-03-18T10:10:18.117Z,15.50
2019-03-18T10:12:49.290Z,15.60
2019-03-18T10:15:21.010Z,15.70
2019-03-18T10:17:52.077Z,15.40
2019-03-18T10:20:23.239Z,15.20
2019-03-18T10:22:58.537Z,14.30
2019-03-18T10:25:30.028Z,14.90
2019-03-18T10:28:00.860Z,15.00
2019-03-18T10:30:34.271Z,15.20
2019-03-18T10:33:05.812Z,14.80
2019-03-18T10:35:36.816Z,14.80
2019-03-18T10:38:08.706Z,15.30
2019-03-18T10:40:40.245Z,15.50
2019-03-18T10:43:11.478Z,15.50
2019-03-18T10:45:42.939Z,15.30
2019-03-18T10:48:14.115Z,15.30
2019-03-18T10:50:44.837Z,15.30
2019-03-18T10:53:16.868Z,15.30
2019-03-18T10:55:48.375Z,15.40
2019-03-18T10:58:19.407Z,15.60
2019-03-18T11:00:50.283Z,15.60
2019-03-18T11:03:21.363Z,15.70
2019-03-18T11:05:52.828Z,15.60
2019-03-18T11:08:23.961Z,15.30
2019-03-18T11:10:55.484Z,15.20
2019-03-18T11:14:24.198Z,15.20
2019-03-18T11:16:55.208Z,15.30
2019-03-18T11:19:27.407Z,15.50
2019-03-18T11:21:58.218Z,15.60
2019-03-18T11:24:29.409Z,15.40
2019-03-18T11:27:00.738Z,15.30
2019-03-18T11:29:33.329Z,15.30
2019-03-18T11:32:05.481Z,16.50
2019-03-18T11:34:36.416Z,15.30
2019-03-18T11:37:07.356Z,15.50
2019-03-18T11:39:38.124Z,15.70
2019-03-18T11:42:08.818Z,15.70
2019-03-18T11:44:43.402Z,14.40
2019-03-18T11:47:35.077Z,15.50
2019-03-18T11:50:11.594Z,15.70
2019-03-18T11:52:44.296Z,15.70
2019-03-18T11:55:16.318Z,15.70
2019-03-18T11:57:47.173Z,15.80
2019-03-18T12:00:18.479Z,15.80
2019-03-18T12:02:50.029Z,15.70
2019-03-18T12:05:20.886Z,15.70
2019-03-18T12:07:51.756Z,15.90
2019-03-18T12:10:25.271Z,15.90
2019-03-18T12:12:54.949Z,15.80
2019-03-18T12:15:35.296Z,16.00
2019-03-18T12:18:05.696Z,17.30
2019-03-18T12:20:37.551Z,18.90
2019-03-18T12:23:08.245Z,20.80
2019-03-18T12:25:39.122Z,21.50
2019-03-18T12:28:09.810Z,21.70
2019-03-18T12:30:40.951Z,22.10
2019-03-18T12:33:11.749Z,22.20
2019-03-18T12:35:42.541Z,22.80
2019-03-18T12:38:13.846Z,23.60
2019-03-18T12:40:45.026Z,23.60
2019-03-18T12:43:16.444Z,22.80
2019-03-18T12:45:48.432Z,23.40
2019-03-18T12:48:19.476Z,23.50
2019-03-18T12:50:56.357Z,22.40
2019-03-18T12:53:23.443Z,23.50
2019-03-18T12:55:54.508Z,24.70
2019-03-18T12:58:26.600Z,22.60
2019-03-18T13:00:58.512Z,24.00
2019-03-18T13:03:29.929Z,23.90
2019-03-18T13:06:01.252Z,24.40
2019-03-18T13:08:32.398Z,23.60
2019-03-18T13:11:04.159Z,23.30
2019-03-18T13:13:35.565Z,23.50
2019-03-18T13:16:06.556Z,22.80
2019-03-18T13:18:37.482Z,23.40
2019-03-18T13:21:09.677Z,23.90
2019-03-18T13:23:41.699Z,23.50
2019-03-18T13:26:12.851Z,23.30
2019-03-18T13:28:43.524Z,23.50
2019-03-18T13:31:14.417Z,23.20
2019-03-18T13:33:46.224Z,22.80
2019-03-18T13:36:17.136Z,22.70
2019-03-18T13:38:47.866Z,22.50
2019-03-18T13:41:18.867Z,21.90
2019-03-18T13:43:49.672Z,21.10
2019-03-18T13:46:20.690Z,20.80
2019-03-18T13:48:51.532Z,21.10
2019-03-18T13:51:22.436Z,21.60
2019-03-18T13:54:02.094Z,21.70
2019-03-18T13:56:33.851Z,21.90
2019-03-18T13:59:04.914Z,22.70
2019-03-18T14:01:36.047Z,23.10
2019-03-18T14:04:06.975Z,23.10
2019-03-18T14:06:38.735Z,23.20
2019-03-18T14:09:09.879Z,23.00
2019-03-18T14:11:40.883Z,21.80
2019-03-18T14:14:11.892Z,20.90
2019-03-18T14:16:43.205Z,21.80
2019-03-18T14:19:14.371Z,21.10
2019-03-18T14:21:46.834Z,19.20
2019-03-18T14:24:18.646Z,18.00
2019-03-18T14:26:50.128Z,17.00
2019-03-18T14:29:21.140Z,16.60
2019-03-18T14:31:52.181Z,16.20
2019-03-18T14:34:23.056Z,16.00
2019-03-18T14:36:54.084Z,16.10
2019-03-18T14:39:24.917Z,15.70
2019-03-18T14:41:56.276Z,15.50
2019-03-18T14:44:27.876Z,15.40
2019-03-18T14:47:02.166Z,15.40
2019-03-18T14:49:33.496Z,15.60
2019-03-18T14:52:04.689Z,15.60
2019-03-18T14:54:35.418Z,15.10
2019-03-18T14:57:10.138Z,15.10
2019-03-18T14:59:40.878Z,15.20
2019-03-18T15:02:11.874Z,15.10
2019-03-18T15:04:42.844Z,15.00
2019-03-18T15:07:13.871Z,15.00
2019-03-18T15:09:44.990Z,15.00
2019-03-18T15:12:16.911Z,15.10
2019-03-18T15:14:48.327Z,15.40
2019-03-18T15:17:21.986Z,15.40
2019-03-18T15:19:52.644Z,14.90
2019-03-18T15:22:23.837Z,14.90
2019-03-18T15:24:55.435Z,14.90
2019-03-18T15:28:00.459Z,14.80
2019-03-18T15:30:31.272Z,14.80
2019-03-18T15:33:02.263Z,14.70
2019-03-18T15:35:33.234Z,14.60
2019-03-18T15:38:04.683Z,14.40
2019-03-18T15:40:35.627Z,14.40
2019-03-18T15:43:06.767Z,14.20
2019-03-18T15:45:38.355Z,14.20
2019-03-18T15:48:09.755Z,14.20
2019-03-18T15:50:40.638Z,14.20
2019-03-18T15:53:11.425Z,14.30
2019-03-18T15:55:42.470Z,14.20
2019-03-18T15:58:14.583Z,14.10
2019-03-18T16:00:45.958Z,14.10
2019-03-18T16:03:17.334Z,14.20
2019-03-18T16:05:48.185Z,14.10
2019-03-18T16:08:20.518Z,14.10
2019-03-18T16:10:52.051Z,14.10
2019-03-18T16:13:24.438Z,14.00
2019-03-18T16:15:56.748Z,13.90
2019-03-18T16:18:28.711Z,14.00
2019-03-18T16:21:09.326Z,13.80
2019-03-18T16:23:41.190Z,13.90
2019-03-18T16:26:12.003Z,13.80
2019-03-18T16:28:43.049Z,13.90
2019-03-18T16:31:14.719Z,14.10
2019-03-18T16:33:46.994Z,14.10
2019-03-18T16:36:18.150Z,14.20
2019-03-18T16:38:50.447Z,14.30
2019-03-18T16:41:21.807Z,14.20
2019-03-18T16:43:55.561Z,14.00
2019-03-18T16:46:27.070Z,13.90
2019-03-18T16:48:57.929Z,13.90
2019-03-18T16:51:28.772Z,13.80
2019-03-18T16:54:00.244Z,13.70
2019-03-18T16:56:31.331Z,13.60
2019-03-18T16:59:03.462Z,13.50
2019-03-18T17:01:34.792Z,13.50
2019-03-18T17:04:06.135Z,13.70
2019-03-18T17:06:38.093Z,13.80
2019-03-18T17:09:09.577Z,13.60
2019-03-18T17:11:40.512Z,13.50
2019-03-18T17:14:11.350Z,13.50
2019-03-18T17:16:42.974Z,13.70
2019-03-18T17:19:15.160Z,13.60
2019-03-18T17:21:46.431Z,13.60
2019-03-18T17:24:17.580Z,13.40
2019-03-18T17:26:48.992Z,13.50
2019-03-18T17:29:20.345Z,13.50
2019-03-18T17:31:52.865Z,13.50
2019-03-18T17:34:23.862Z,13.60
2019-03-18T17:36:54.648Z,13.40
2019-03-18T17:39:25.949Z,13.50
2019-03-18T17:41:56.884Z,13.50
2019-03-18T17:44:32.961Z,13.30
2019-03-18T17:47:07.488Z,13.30
2019-03-18T17:49:42.232Z,13.30
2019-03-18T17:52:14.143Z,13.20
2019-03-18T17:54:45.347Z,13.10
2019-03-18T17:57:16.332Z,13.20
2019-03-18T17:59:47.458Z,13.30
2019-03-18T18:02:18.499Z,13.40
2019-03-18T18:05:02.173Z,13.20
2019-03-18T18:07:49.482Z,13.20
2019-03-18T18:10:23.636Z,13.30
2019-03-18T18:12:55.216Z,13.20
2019-03-18T18:15:26.729Z,13.10
2019-03-18T18:17:58.051Z,13.10
2019-03-18T18:20:29.210Z,13.20
2019-03-18T18:23:00.537Z,13.10
2019-03-18T18:26:12.104Z,13.10
2019-03-18T18:28:44.431Z,13.10
2019-03-18T18:31:33.956Z,13.00
2019-03-18T18:34:05.580Z,13.10
2019-03-18T18:36:37.359Z,13.10
2019-03-18T18:39:09.228Z,13.10
2019-03-18T18:41:40.910Z,13.10
2019-03-18T18:44:12.156Z,13.10
2019-03-18T18:46:43.706Z,13.00
2019-03-18T18:49:14.907Z,13.00
2019-03-18T18:51:45.929Z,13.00
2019-03-18T18:54:17.379Z,12.80
2019-03-18T18:56:48.655Z,12.90
2019-03-18T18:59:19.498Z,12.90
2019-03-18T19:01:50.906Z,13.00
2019-03-18T19:04:23.154Z,13.00
2019-03-18T19:06:59.246Z,12.80
2019-03-18T19:09:30.161Z,13.00
2019-03-18T19:12:01.569Z,13.00
2019-03-18T19:14:32.521Z,13.00
2019-03-18T19:17:05.033Z,12.80
2019-03-18T19:19:36.430Z,12.80
2019-03-18T19:22:07.821Z,12.90
2019-03-18T19:24:39.381Z,12.80
2019-03-18T19:27:11.538Z,12.80
2019-03-18T19:29:42.581Z,12.90
2019-03-18T19:32:13.579Z,12.90
2019-03-18T19:34:51.231Z,12.90
2019-03-18T19:37:24.409Z,12.80
2019-03-18T19:39:55.563Z,12.70
2019-03-18T19:42:27.419Z,12.70
2019-03-18T19:44:59.301Z,12.80
2019-03-18T19:47:31.191Z,12.80
2019-03-18T19:50:02.610Z,12.90
2019-03-18T19:52:34.002Z,12.80
2019-03-18T19:55:05.465Z,12.80
2019-03-18T19:57:36.704Z,12.70
2019-03-18T20:00:11.868Z,12.80
2019-03-18T20:02:43.487Z,12.80
2019-03-18T20:05:16.444Z,12.70
2019-03-18T20:07:47.778Z,12.70
2019-03-18T20:10:19.308Z,12.80
2019-03-18T20:12:50.379Z,12.70
2019-03-18T20:15:21.203Z,12.70
2019-03-18T20:18:08.395Z,12.90
2019-03-18T20:20:40.320Z,13.00
2019-03-18T20:23:11.687Z,12.80
2019-03-18T20:25:42.700Z,12.90
2019-03-18T20:28:13.996Z,12.90
2019-03-18T20:30:44.924Z,12.90
2019-03-18T20:33:16.170Z,13.00
2019-03-18T20:35:47.043Z,13.00
2019-03-18T20:38:18.156Z,13.00
2019-03-18T20:40:49.161Z,13.00
2019-03-18T20:43:20.188Z,12.90
2019-03-18T20:45:51.255Z,13.00
2019-03-18T20:48:22.342Z,13.00
2019-03-18T20:50:53.001Z,12.90
2019-03-18T20:53:31.289Z,12.80
2019-03-18T20:56:03.534Z,12.80
2019-03-18T20:58:36.079Z,12.80
2019-03-18T21:01:08.573Z,12.90
2019-03-18T21:03:39.470Z,13.00
2019-03-18T21:06:11.519Z,12.90
2019-03-18T21:08:42.379Z,12.80
2019-03-18T21:11:13.329Z,13.00
2019-03-18T21:13:56.438Z,12.90
2019-03-18T21:16:18.374Z,13.00
2019-03-18T21:18:50.111Z,13.00
2019-03-18T21:21:21.914Z,13.00
2019-03-18T21:23:53.756Z,13.10
2019-03-18T21:26:25.351Z,13.00
2019-03-18T21:28:56.332Z,13.00
2019-03-18T21:31:29.017Z,13.00
2019-03-18T21:34:00.190Z,12.90
2019-03-18T21:36:37.763Z,12.90
2019-03-18T21:39:07.841Z,12.90
2019-03-18T21:41:50.980Z,12.90
2019-03-18T21:44:22.547Z,13.00
2019-03-18T21:46:54.016Z,12.90
2019-03-18T21:49:25.669Z,12.80
2019-03-18T21:51:56.498Z,12.70
2019-03-18T21:54:34.170Z,12.80
2019-03-18T21:57:02.710Z,12.80
2019-03-18T21:59:34.436Z,12.90
2019-03-18T22:02:06.502Z,13.00
2019-03-18T22:04:37.642Z,12.90
2019-03-18T22:07:08.429Z,13.00
2019-03-18T22:09:39.431Z,13.10
2019-03-18T22:12:10.575Z,13.10
2019-03-18T22:14:42.310Z,13.00
2019-03-18T22:17:14.392Z,12.80
2019-03-18T22:19:45.835Z,12.80
2019-03-18T22:22:18.384Z,12.90
2019-03-18T22:24:50.114Z,13.00
2019-03-18T22:27:21.879Z,13.00
2019-03-18T22:29:52.640Z,13.10
2019-03-18T22:32:25.175Z,13.00
2019-03-18T22:34:56.056Z,13.10
2019-03-18T22:37:28.386Z,13.00
2019-03-18T22:39:59.781Z,13.10
2019-03-18T22:42:31.005Z,13.10
2019-03-18T22:45:01.787Z,13.10
2019-03-18T22:47:32.544Z,12.90
2019-03-18T22:50:03.381Z,12.90
2019-03-18T22:52:34.407Z,12.80
2019-03-18T22:55:07.588Z,12.80
2019-03-18T22:57:38.799Z,12.90
2019-03-18T23:00:21.219Z,12.90
2019-03-18T23:02:54.082Z,13.00
2019-03-18T23:05:35.747Z,12.90
2019-03-18T23:08:08.188Z,12.90
2019-03-18T23:10:39.335Z,12.80
2019-03-18T23:13:10.284Z,12.80
2019-03-18T23:15:41.177Z,12.80
2019-03-18T23:18:12.015Z,12.80
2019-03-18T23:20:42.897Z,12.80
2019-03-18T23:23:13.596Z,12.80
2019-03-18T23:25:44.516Z,12.80
2019-03-18T23:28:34.714Z,12.80
2019-03-18T23:31:08.054Z,12.70
2019-03-18T23:33:39.657Z,12.70
2019-03-18T23:36:10.593Z,12.90
2019-03-18T23:38:41.259Z,13.00
2019-03-18T23:41:11.969Z,13.10
2019-03-18T23:43:42.896Z,13.00
2019-03-18T23:46:13.595Z,12.90
2019-03-18T23:48:44.255Z,12.80
2019-03-18T23:51:15.305Z,12.80
2019-03-18T23:53:47.351Z,12.80
2019-03-18T23:56:18.477Z,12.80
2019-03-18T23:58:49.098Z,12.70
